Time;durP1;ratioP1;P1;durP2;ratioP2;P2;SDS_P1;SDS_P2;PMS_P1;PMS_P2;Temp;Humidity;BMP_temperature;BMP_pressure;BME280_temperature;BME280_humidity;BME280_pressure;Samples;Min_cycle;Max_cycle;Signal;HPM_P1;HPM_P2
2022/08/02 00:08:30;;;;;;;1.33;0.30;;;;;;;19.68;86.26;100244.75;7397600;19;20014;-49
2022/08/02 00:10:57;;;;;;;1.00;0.47;;;;;;;19.69;86.44;100238.75;7402645;19;20503;-48
2022/08/02 00:17:03;;;;;;;2.85;0.70;;;;;;;19.70;86.97;100257.16;7396371;19;20047;-49
2022/08/02 00:19:31;;;;;;;6.15;1.60;;;;;;;19.72;86.65;100249.16;7394569;19;20365;-53
2022/08/02 00:22:42;;;;;;;1.38;0.60;;;;;;;19.70;86.90;100243.13;7382241;19;20010;-52
2022/08/02 00:25:10;;;;;;;1.90;0.60;;;;;;;19.73;86.36;100242.28;7398981;19;20017;-50
2022/08/02 00:27:38;;;;;;;3.20;0.60;;;;;;;19.72;86.87;100240.72;7398612;19;20341;-49
2022/08/02 00:33:36;;;;;;;1.15;0.75;;;;;;;19.73;86.87;100216.22;7397469;19;20014;-48
2022/08/02 00:36:23;;;;;;;1.30;0.52;;;;;;;19.72;87.13;100215.44;7400500;19;20005;-48
2022/08/02 00:43:17;;;;;;;2.30;0.80;;;;;;;19.72;87.16;100211.81;7399985;19;20006;-53
2022/08/02 00:45:45;;;;;;;0.70;0.70;;;;;;;19.73;86.47;100214.19;7396139;19;20476;-51
2022/08/02 00:48:48;;;;;;;3.10;0.85;;;;;;;19.72;86.96;100212.63;7402057;19;20011;-48
2022/08/02 00:51:39;;;;;;;0.70;0.55;;;;;;;19.71;87.40;100199.00;7400539;19;20344;-49
2022/08/02 00:54:07;;;;;;;1.55;0.50;;;;;;;19.70;87.18;100198.19;7403128;19;20015;-49
2022/08/02 01:04:11;;;;;;;3.50;0.43;;;;;;;19.69;87.15;100185.38;7397025;19;20030;-50
2022/08/02 01:06:40;;;;;;;3.60;0.40;;;;;;;19.69;86.79;100195.81;7398666;19;20019;-50
2022/08/02 01:09:08;;;;;;;1.77;0.88;;;;;;;19.68;86.97;100172.53;7398969;19;20018;-54
2022/08/02 01:11:38;;;;;;;0.50;0.50;;;;;;;19.71;87.18;100162.47;7397418;19;20078;-48
2022/08/02 01:14:09;;;;;;;2.38;0.70;;;;;;;19.70;86.86;100189.75;7399996;19;20010;-48
2022/08/02 01:17:04;;;;;;;2.75;0.50;;;;;;;19.69;87.11;100191.00;7396426;19;20391;-48
2022/08/02 01:20:10;;;;;;;0.82;0.73;;;;;;;19.66;87.29;100177.78;7399930;19;20416;-50
2022/08/02 01:22:55;;;;;;;2.35;0.73;;;;;;;19.64;87.25;100191.47;7394681;19;20014;-50
2022/08/02 01:29:25;;;;;;;3.13;0.40;;;;;;;19.65;87.12;100193.03;7396056;19;20006;-49
2022/08/02 01:35:53;;;;;;;1.35;0.40;;;;;;;19.66;87.50;100191.84;7398984;19;20002;-51
2022/08/02 01:38:56;;;;;;;1.55;0.40;;;;;;;19.67;87.44;100209.47;7396269;19;20018;-50
2022/08/02 01:41:48;;;;;;;2.58;0.50;;;;;;;19.67;88.30;100210.25;7396901;19;20019;-48
2022/08/02 01:44:26;;;;;;;0.70;0.45;;;;;;;19.70;87.26;100226.28;7399475;19;20013;-49
2022/08/02 01:46:59;;;;;;;2.40;0.50;;;;;;;19.70;87.51;100223.47;7393645;19;20014;-51
2022/08/02 01:49:29;;;;;;;1.10;0.80;;;;;;;19.71;87.55;100227.88;7394923;19;20031;-51
2022/08/02 01:52:30;;;;;;;0.85;0.50;;;;;;;19.72;87.86;100215.44;7397636;19;20010;-50
2022/08/02 01:55:05;;;;;;;3.13;0.80;;;;;;;19.72;88.22;100212.63;7399237;19;20003;-51
2022/08/02 02:01:42;;;;;;;1.58;0.60;;;;;;;19.68;89.64;100194.22;7395733;19;20014;-52
2022/08/02 02:04:32;;;;;;;3.00;0.90;;;;;;;19.67;88.27;100187.00;7394900;19;20010;-49
2022/08/02 02:07:00;;;;;;;4.07;0.50;;;;;;;19.65;88.84;100179.00;7392517;19;20026;-51
2022/08/02 02:09:34;;;;;;;1.17;0.50;;;;;;;19.61;89.08;100178.25;7396840;19;22274;-49
2022/08/02 02:12:43;;;;;;;1.73;1.00;;;;;;;19.58;89.96;100190.31;7393158;19;20014;-49
2022/08/02 02:15:12;;;;;;;3.20;0.65;;;;;;;19.56;88.99;100192.75;7395900;19;20011;-51
2022/08/02 02:18:17;;;;;;;2.95;0.70;;;;;;;19.54;89.58;100174.75;7394150;19;20038;-49
2022/08/02 02:21:06;;;;;;;1.48;0.40;;;;;;;19.52;90.03;100183.56;7394699;19;20051;-49
2022/08/02 02:35:54;;;;;;;4.35;1.35;;;;;;;19.49;89.33;100190.03;7388494;19;20014;-48
2022/08/02 02:38:45;;;;;;;0.82;0.25;;;;;;;19.47;89.23;100188.84;7389795;19;20002;-49
2022/08/02 02:41:18;;;;;;;0.95;0.57;;;;;;;19.47;89.09;100195.25;7383044;19;20493;-50
2022/08/02 02:44:17;;;;;;;;;;;;;;;19.43;90.94;100194.53;7381080;19;20018;-48
2022/08/02 02:46:48;;;;;;;3.03;0.55;;;;;;;19.43;89.40;100197.31;7393183;19;20276;-50
2022/08/02 02:49:37;;;;;;;2.17;0.90;;;;;;;19.43;89.40;100194.53;7392324;19;20007;-49
2022/08/02 02:52:06;;;;;;;2.85;0.47;;;;;;;19.43;89.47;100191.72;7390842;19;20025;-55
2022/08/02 02:58:21;;;;;;;2.10;0.50;;;;;;;19.42;89.38;100181.69;7394083;19;20014;-49
2022/08/02 03:04:19;;;;;;;2.20;0.60;;;;;;;19.39;90.79;100190.94;7392261;19;20352;-49
2022/08/02 03:10:18;;;;;;;3.15;0.47;;;;;;;19.39;89.85;100188.94;7394099;19;20475;-51
2022/08/02 03:23:11;;;;;;;1.38;0.40;;;;;;;19.42;89.50;100184.50;7390498;19;20011;-48
2022/08/02 03:25:39;;;;;;;4.28;0.82;;;;;;;19.42;89.51;100176.06;7394458;19;20019;-48
2022/08/02 03:28:06;;;;;;;2.35;0.50;;;;;;;19.43;89.35;100161.59;7388382;19;20015;-50
2022/08/02 03:30:34;;;;;;;6.30;0.80;;;;;;;19.46;89.55;100159.97;7391209;19;20073;-48
2022/08/02 03:33:01;;;;;;;7.22;2.45;;;;;;;19.48;89.38;100151.13;7391120;19;20019;-48
2022/08/02 03:38:57;;;;;;;1.70;0.60;;;;;;;19.48;89.53;100132.28;7396972;19;20014;-50
2022/08/02 03:45:07;;;;;;;1.65;0.45;;;;;;;19.50;89.50;100115.81;7396657;19;20047;-49
2022/08/02 03:47:38;;;;;;;3.03;0.47;;;;;;;19.53;88.98;100125.41;7392121;19;20476;-49
2022/08/02 04:01:07;;;;;;;1.90;0.40;;;;;;;19.52;88.74;100113.38;7404163;19;20025;-49
2022/08/02 04:03:54;;;;;;;2.67;0.30;;;;;;;19.51;89.22;100123.03;7400303;19;20332;-50
2022/08/02 04:10:25;;;;;;;0.20;0.20;;;;;;;19.47;88.81;100116.66;7397002;19;20010;-49
2022/08/02 04:16:43;;;;;;;0.63;0.20;;;;;;;19.45;89.82;100119.09;7401361;19;20006;-48
2022/08/02 04:19:18;;;;;;;0.38;0.32;;;;;;;19.44;89.23;100109.88;7401287;19;20014;-49
2022/08/02 04:32:14;;;;;;;0.13;0.10;;;;;;;19.39;89.61;100117.94;7393899;19;20011;-51
2022/08/02 04:34:43;;;;;;;1.55;0.20;;;;;;;19.37;90.05;100106.31;7403506;19;20464;-51
2022/08/02 04:37:32;;;;;;;1.67;0.40;;;;;;;19.36;89.84;100118.75;7396803;19;20547;-49
2022/08/02 04:43:24;;;;;;;0.20;0.20;;;;;;;19.36;90.29;100121.56;7399956;19;20011;-49
2022/08/02 04:45:53;;;;;;;1.35;0.30;;;;;;;19.34;90.65;100104.34;7398594;19;20018;-49
2022/08/02 04:48:22;;;;;;;0.93;0.20;;;;;;;19.34;90.53;100101.53;7401994;19;20401;-49
2022/08/02 04:54:10;;;;;;;0.25;0.20;;;;;;;19.32;90.73;100101.97;7395799;19;20019;-49
2022/08/02 05:01:43;;;;;;;0.98;0.20;;;;;;;19.29;91.03;100110.44;7398134;19;20011;-54
2022/08/02 05:04:11;;;;;;;1.50;0.10;;;;;;;19.31;90.39;100130.44;7400323;19;20015;-49
2022/08/02 05:06:57;;;;;;;0.77;0.10;;;;;;;19.28;90.82;100137.69;7392627;19;20042;-49
2022/08/02 05:09:36;;;;;;;1.58;0.15;;;;;;;19.27;91.04;100140.94;7399355;19;20029;-50
2022/08/02 05:12:40;;;;;;;0.57;0.20;;;;;;;19.30;90.90;100121.22;7398484;19;20055;-49
2022/08/02 05:15:08;;;;;;;0.47;0.15;;;;;;;19.33;90.30;100130.81;7400367;19;20029;-53
2022/08/02 05:18:32;;;;;;;0.57;0.13;;;;;;;19.31;90.44;100144.47;7399158;19;20406;-50
2022/08/02 05:21:15;;;;;;;1.55;0.40;;;;;;;19.33;90.60;100140.03;7401245;19;20013;-50
2022/08/02 05:30:44;;;;;;;0.90;0.20;;;;;;;19.31;90.68;100120.03;7394728;19;20019;-50
2022/08/02 05:33:12;;;;;;;0.40;0.10;;;;;;;19.32;90.51;100118.03;7394829;19;20024;-48
2022/08/02 05:35:39;;;;;;;1.02;0.20;;;;;;;19.30;90.91;100120.47;7402111;19;20021;-50
2022/08/02 05:38:33;;;;;;;0.52;0.20;;;;;;;19.25;91.89;100106.84;7399232;19;20006;-51
2022/08/02 05:41:23;;;;;;;0.63;0.30;;;;;;;19.26;91.43;100095.22;7397548;19;20344;-51
2022/08/02 05:47:18;;;;;;;0.88;0.28;;;;;;;19.21;91.60;100101.31;7392564;19;20006;-49
2022/08/02 05:50:07;;;;;;;1.58;0.32;;;;;;;19.21;91.76;100100.50;7395191;19;20494;-55
2022/08/02 05:52:47;;;;;;;1.17;0.10;;;;;;;19.18;92.47;100109.75;7393097;19;20014;-51
2022/08/02 05:55:17;;;;;;;0.80;0.30;;;;;;;19.15;92.27;100108.59;7394958;19;20011;-51
2022/08/02 05:58:15;;;;;;;4.75;0.40;;;;;;;19.13;92.80;100115.84;7394927;19;20014;-50
2022/08/02 06:00:44;;;;;;;0.57;0.10;;;;;;;19.15;92.56;100121.81;7398591;19;20066;-51
2022/08/02 06:06:42;;;;;;;0.95;0.20;;;;;;;19.14;93.08;100125.84;7394553;19;20356;-51
2022/08/02 06:09:17;;;;;;;2.67;0.20;;;;;;;19.11;93.17;100119.06;7395446;19;20044;-50
2022/08/02 06:12:16;;;;;;;2.90;0.15;;;;;;;19.10;93.53;100105.44;7393307;19;20017;-54
2022/08/02 06:15:04;;;;;;;1.73;0.20;;;;;;;19.11;94.10;100112.66;7392640;19;20031;-51
2022/08/02 06:17:32;;;;;;;0.65;0.20;;;;;;;19.12;93.48;100114.22;7390657;19;20014;-55
2022/08/02 06:20:09;;;;;;;1.77;0.20;;;;;;;19.11;93.58;100115.47;7394960;19;20029;-52
2022/08/02 06:22:42;;;;;;;0.32;0.32;;;;;;;19.14;93.59;100115.41;7392269;19;20014;-48
2022/08/02 06:25:12;;;;;;;5.10;0.43;;;;;;;19.18;93.81;100123.78;7393601;19;20817;-51
2022/08/02 06:28:02;;;;;;;2.55;0.20;;;;;;;19.17;93.92;100130.59;7392142;19;20492;-54
2022/08/02 06:30:38;;;;;;;0.52;0.20;;;;;;;19.19;93.70;100128.19;7395004;19;20026;-49
2022/08/02 06:33:05;;;;;;;4.05;0.30;;;;;;;19.19;93.87;100145.84;7391425;19;20018;-51
2022/08/02 06:35:39;;;;;;;2.05;0.40;;;;;;;19.20;93.71;100141.81;7393216;19;20031;-51
2022/08/02 06:38:09;;;;;;;1.48;0.20;;;;;;;19.22;93.58;100141.41;7390633;19;20014;-53
2022/08/02 06:40:47;;;;;;;1.55;0.35;;;;;;;19.21;94.27;100137.00;7392422;19;20002;-50
2022/08/02 06:43:51;;;;;;;2.60;0.43;;;;;;;19.24;94.40;100133.34;7390218;19;20018;-49
2022/08/02 06:46:20;;;;;;;1.63;0.30;;;;;;;19.28;94.23;100136.91;7393607;19;20017;-50
2022/08/02 06:49:30;;;;;;;2.85;0.55;;;;;;;19.32;94.30;100149.69;7396529;19;20002;-55
2022/08/02 06:52:18;;;;;;;0.50;0.28;;;;;;;19.37;94.18;100151.25;7394728;19;20034;-49
2022/08/02 06:54:49;;;;;;;0.32;0.30;;;;;;;19.45;93.71;100147.16;7390597;19;20493;-53
2022/08/02 06:57:23;;;;;;;0.50;0.20;;;;;;;19.48;93.37;100145.53;7394403;19;20015;-50
2022/08/02 06:59:50;;;;;;;3.53;0.25;;;;;;;19.53;93.44;100148.66;7394050;19;20006;-49
2022/08/02 07:02:18;;;;;;;1.05;0.10;;;;;;;19.59;93.18;100146.19;7392764;19;20002;-48
2022/08/02 07:04:45;;;;;;;0.28;0.10;;;;;;;19.64;92.78;100152.16;7390885;19;20047;-50
2022/08/02 07:07:13;;;;;;;1.38;0.20;;;;;;;19.67;92.28;100173.75;7393154;19;20017;-48
2022/08/02 07:09:41;;;;;;;0.30;0.25;;;;;;;19.68;92.14;100144.44;7392949;19;20014;-51
2022/08/02 07:12:29;;;;;;;0.10;0.10;;;;;;;19.73;91.83;100152.41;7390810;19;20003;-49
2022/08/02 07:15:20;;;;;;;1.35;0.28;;;;;;;19.78;90.38;100160.38;7391421;19;20044;-49
2022/08/02 07:18:16;;;;;;;1.30;0.20;;;;;;;19.82;89.64;100158.31;7396409;19;20014;-48
2022/08/02 07:20:43;;;;;;;0.10;0.10;;;;;;;19.85;89.93;100163.09;7391128;19;20017;-52
2022/08/02 07:23:12;;;;;;;0.90;0.20;;;;;;;19.93;89.30;100155.38;7393344;19;20006;-48
2022/08/02 07:25:40;;;;;;;0.10;0.10;;;;;;;20.01;88.71;100168.09;7392790;19;20475;-52
2022/08/02 07:28:28;;;;;;;2.03;0.20;;;;;;;20.02;87.69;100161.25;7392832;19;20014;-49
2022/08/02 07:30:55;;;;;;;0.43;0.15;;;;;;;20.03;87.27;100168.47;7394479;19;20033;-54
2022/08/02 07:33:23;;;;;;;1.13;0.20;;;;;;;20.04;86.81;100165.22;7398396;19;20007;-50
2022/08/02 07:36:05;;;;;;;;;;;;;;;20.03;84.44;100174.06;7400399;19;20018;-48
2022/08/02 07:38:39;;;;;;;0.35;0.15;;;;;;;20.05;86.20;100169.63;7398525;19;19915;-49
2022/08/02 07:41:11;;;;;;;1.85;1.10;;;;;;;20.09;85.80;100169.59;7400218;19;20010;-50
2022/08/02 07:43:38;;;;;;;0.28;0.28;;;;;;;20.13;85.19;100169.50;7399449;19;20374;-49
2022/08/02 07:46:06;;;;;;;0.00;0.00;;;;;;;20.14;84.92;100176.75;7397789;19;20379;-55
2022/08/02 07:48:33;;;;;;;1.10;0.08;;;;;;;20.13;84.46;100181.56;7399582;19;20007;-49
2022/08/02 07:51:01;;;;;;;0.65;0.20;;;;;;;20.14;84.20;100171.91;7399023;19;20015;-53
2022/08/02 07:53:29;;;;;;;0.30;0.30;;;;;;;20.14;83.35;100160.69;7396813;19;20007;-53
2022/08/02 07:56:16;;;;;;;0.20;0.20;;;;;;;20.13;82.75;100155.47;7398376;19;20010;-53
2022/08/02 07:58:44;;;;;;;0.57;0.22;;;;;;;20.13;82.10;100163.88;7398325;19;20030;-49
2022/08/02 08:01:20;;;;;;;0.63;0.20;;;;;;;20.11;81.26;100150.28;7400585;19;20015;-50
2022/08/02 08:04:48;;;;;;;0.28;0.20;;;;;;;20.10;79.92;100167.53;7396634;19;20031;-49
2022/08/02 08:07:27;;;;;;;0.73;0.28;;;;;;;20.12;80.79;100163.09;7400009;19;20014;-53
2022/08/02 08:09:55;;;;;;;0.85;0.13;;;;;;;20.14;81.04;100159.88;7397776;19;20059;-49
2022/08/02 08:12:23;;;;;;;0.40;0.20;;;;;;;20.14;80.82;100165.50;7401903;19;20010;-50
2022/08/02 08:14:50;;;;;;;1.00;0.40;;;;;;;20.09;80.51;100171.59;7396935;19;20011;-49
2022/08/02 08:17:44;;;;;;;0.30;0.30;;;;;;;20.07;79.44;100182.47;7402905;19;20003;-49
2022/08/02 08:20:36;;;;;;;0.90;0.68;;;;;;;20.03;79.93;100176.88;7398123;19;20358;-51
2022/08/02 08:23:04;;;;;;;;;;;;;;;20.03;79.87;100174.88;7397040;19;20039;-49
2022/08/02 08:25:31;;;;;;;0.68;0.50;;;;;;;20.09;80.43;100185.66;7398899;19;19910;-50
2022/08/02 08:28:07;;;;;;;3.15;0.80;;;;;;;20.16;80.52;100180.72;7397526;19;20021;-51
2022/08/02 08:30:35;;;;;;;1.98;0.28;;;;;;;20.20;80.40;100175.81;7398472;19;20011;-52
2022/08/02 08:33:20;;;;;;;2.47;0.93;;;;;;;20.14;79.55;100177.53;7398737;19;20024;-50
2022/08/02 08:35:59;;;;;;;2.35;0.40;;;;;;;20.12;79.61;100182.00;7397046;19;20378;-49
2022/08/02 08:38:29;;;;;;;3.05;0.75;;;;;;;20.13;79.90;100190.00;7397778;19;20014;-53
2022/08/02 08:41:27;;;;;;;3.08;0.60;;;;;;;20.14;79.89;100185.16;7399043;19;20014;-49
2022/08/02 08:43:58;;;;;;;0.20;0.20;;;;;;;20.15;79.93;100175.53;7397836;19;20011;-48
2022/08/02 08:46:28;;;;;;;1.17;0.43;;;;;;;20.10;79.76;100179.59;7396028;19;20022;-53
2022/08/02 08:49:08;;;;;;;0.52;0.22;;;;;;;20.05;79.47;100191.31;7395978;19;20018;-50
2022/08/02 08:51:40;;;;;;;1.33;0.20;;;;;;;20.11;79.64;100188.81;7395092;19;20022;-49
2022/08/02 08:54:14;;;;;;;1.50;0.20;;;;;;;20.29;79.96;100183.75;7395019;19;20592;-51
2022/08/02 08:56:42;;;;;;;2.17;0.30;;;;;;;20.63;80.19;100176.78;7394289;19;20488;-56
2022/08/02 08:59:10;;;;;;;1.85;0.30;;;;;;;20.95;79.84;100176.22;7396196;19;20534;-50
2022/08/02 09:01:37;;;;;;;0.55;0.20;;;;;;;21.21;79.35;100166.94;7393768;19;20011;-48
2022/08/02 09:04:18;;;;;;;1.98;0.20;;;;;;;21.41;78.48;100174.59;7392529;19;20007;-51
2022/08/02 09:06:48;;;;;;;3.15;0.20;;;;;;;21.47;77.99;100167.25;7391669;19;20038;-50
2022/08/02 09:09:16;;;;;;;1.95;0.22;;;;;;;21.43;77.18;100166.50;7393948;19;20018;-49
2022/08/02 09:11:44;;;;;;;1.40;0.30;;;;;;;21.34;76.67;100174.75;7396860;19;20034;-49
2022/08/02 09:14:24;;;;;;;0.95;0.43;;;;;;;21.32;76.31;100160.28;7395581;19;20018;-50
2022/08/02 09:17:13;;;;;;;0.65;0.10;;;;;;;21.29;76.99;100175.25;7393133;19;20022;-52
2022/08/02 09:19:40;;;;;;;1.65;0.30;;;;;;;21.35;76.84;100162.25;7396420;19;20043;-49
2022/08/02 09:22:13;;;;;;;0.65;0.30;;;;;;;21.44;76.79;100156.84;7395476;19;20030;-50
2022/08/02 09:24:47;;;;;;;2.80;0.50;;;;;;;21.62;76.08;100174.19;7396363;19;20355;-50
2022/08/02 09:27:17;;;;;;;2.38;0.25;;;;;;;21.80;75.83;100166.94;7395710;19;20035;-50
2022/08/02 09:29:47;;;;;;;0.80;0.20;;;;;;;21.91;75.08;100172.38;7393823;19;20017;-54
2022/08/02 09:32:46;;;;;;;0.10;0.10;;;;;;;22.05;73.24;100185.38;7392592;19;20007;-48
2022/08/02 09:35:57;;;;;;;0.25;0.20;;;;;;;22.45;73.05;100169.94;7392448;19;20006;-51
2022/08/02 09:38:35;;;;;;;0.60;0.30;;;;;;;22.70;73.36;100186.25;7391895;19;20014;-48
2022/08/02 09:41:05;;;;;;;1.85;0.40;;;;;;;22.64;72.48;100176.72;7393306;19;20014;-50
2022/08/02 09:43:41;;;;;;;0.70;0.30;;;;;;;22.60;71.22;100181.63;7396505;19;20503;-48
2022/08/02 09:46:31;;;;;;;0.10;0.10;;;;;;;23.21;71.52;100176.84;7395813;19;20022;-48
2022/08/02 09:49:01;;;;;;;1.02;0.20;;;;;;;23.67;69.57;100174.78;7396063;19;20043;-49
2022/08/02 09:51:29;;;;;;;0.28;0.22;;;;;;;;;;7395418;19;20007;-51
2022/08/02 09:54:01;;;;;;;0.80;0.20;;;;;;;23.97;68.19;100183.56;7392893;19;20007;-49
2022/08/02 09:56:59;;;;;;;0.47;0.25;;;;;;;23.84;67.51;100185.56;7392093;19;20007;-49
2022/08/02 09:59:28;;;;;;;1.17;0.32;;;;;;;23.70;66.89;100188.81;7395448;19;20010;-49
2022/08/02 10:01:58;;;;;;;1.50;0.30;;;;;;;23.65;66.52;100195.00;7392846;19;20018;-49
2022/08/02 10:04:46;;;;;;;1.65;0.30;;;;;;;23.57;67.00;100214.19;7391625;19;20464;-49
2022/08/02 10:07:21;;;;;;;0.85;0.17;;;;;;;23.44;66.18;100193.59;7394708;19;20010;-50
2022/08/02 10:10:06;;;;;;;0.82;0.82;;;;;;;23.24;65.66;100194.94;7397724;19;20374;-52
2022/08/02 10:12:36;;;;;;;1.95;0.43;;;;;;;23.22;66.83;100189.72;7394707;19;20037;-49
2022/08/02 10:15:05;;;;;;;1.20;0.40;;;;;;;23.31;66.97;100203.22;7390796;19;20032;-49
2022/08/02 10:17:32;;;;;;;0.95;0.40;;;;;;;23.26;66.58;100201.72;7395510;19;20037;-51
2022/08/02 10:19:59;;;;;;;0.70;0.38;;;;;;;23.16;66.73;100202.00;7396489;19;20500;-49
2022/08/02 10:22:37;;;;;;;0.40;0.35;;;;;;;23.04;66.19;100203.53;7396893;19;20033;-51
2022/08/02 10:25:27;;;;;;;0.20;0.20;;;;;;;23.00;65.63;100205.66;7393694;19;20033;-50
2022/08/02 10:27:55;;;;;;;0.95;0.40;;;;;;;22.93;66.88;100217.09;7395992;19;20011;-53
2022/08/02 10:31:04;;;;;;;0.30;0.30;;;;;;;22.68;65.90;100206.47;7392816;19;20040;-52
2022/08/02 10:33:35;;;;;;;1.45;0.40;;;;;;;22.58;66.72;100223.63;7391111;19;20017;-52
2022/08/02 10:36:07;;;;;;;0.80;0.38;;;;;;;22.44;67.15;100210.63;7393186;19;20014;-50
2022/08/02 10:38:35;;;;;;;3.20;0.40;;;;;;;22.32;67.54;100211.31;7393678;19;20036;-52
2022/08/02 10:41:03;;;;;;;0.68;0.20;;;;;;;22.26;67.77;100207.44;7392488;19;20010;-50
2022/08/02 10:43:30;;;;;;;6.05;0.63;;;;;;;22.17;68.26;100215.69;7391981;19;20033;-48
2022/08/02 10:46:22;;;;;;;2.53;0.63;;;;;;;22.12;68.77;100219.81;7398217;19;20010;-50
2022/08/02 10:49:14;;;;;;;2.33;0.68;;;;;;;22.13;69.11;100210.16;7393197;19;20010;-51
2022/08/02 10:52:01;;;;;;;1.08;0.20;;;;;;;22.12;69.09;100208.53;7392892;19;20035;-51
2022/08/02 10:54:38;;;;;;;0.40;0.40;;;;;;;22.06;68.98;100213.09;7391657;19;20014;-53
2022/08/02 10:57:22;;;;;;;0.73;0.40;;;;;;;22.01;69.81;100207.97;7395531;19;20400;-48
2022/08/02 10:59:53;;;;;;;0.75;0.47;;;;;;;22.00;69.72;100206.38;7390003;19;20029;-50
2022/08/02 11:02:36;;;;;;;1.08;0.40;;;;;;;22.00;70.33;100225.34;7392180;19;20043;-51
2022/08/02 11:05:12;;;;;;;1.00;0.40;;;;;;;22.01;70.41;100216.44;7396444;19;20051;-48
2022/08/02 11:07:47;;;;;;;0.85;0.40;;;;;;;22.04;70.80;100218.38;7399412;19;20370;-47
2022/08/02 11:10:25;;;;;;;1.08;0.30;;;;;;;22.03;70.90;100210.38;7398259;19;20087;-49
2022/08/02 11:13:06;;;;;;;2.47;0.32;;;;;;;22.01;70.75;100219.25;7399596;19;20540;-48
2022/08/02 11:15:57;;;;;;;0.93;0.22;;;;;;;21.99;70.38;100215.28;7400996;19;20043;-48
2022/08/02 11:18:42;;;;;;;0.52;0.40;;;;;;;21.95;70.71;100212.53;7398560;19;20014;-56
2022/08/02 11:21:34;;;;;;;1.48;0.50;;;;;;;21.98;71.01;100211.66;7399938;19;20090;-50
2022/08/02 11:24:28;;;;;;;0.30;0.30;;;;;;;21.99;70.90;100215.28;7399764;19;20010;-52
2022/08/02 11:27:17;;;;;;;0.88;0.30;;;;;;;22.05;70.86;100217.19;7398965;19;20020;-51
2022/08/02 11:29:48;;;;;;;;;;;;;;;22.09;71.12;100202.97;7399431;19;20018;-51
2022/08/02 11:32:21;;;;;;;2.65;0.50;;;;;;;22.10;70.78;100215.84;7397193;19;19955;-50
2022/08/02 11:34:59;;;;;;;2.63;0.52;;;;;;;22.16;70.72;100214.88;7396871;19;20560;-48
2022/08/02 11:37:31;;;;;;;1.08;0.50;;;;;;;22.29;71.04;100204.50;7401867;19;20014;-47
2022/08/02 11:40:01;;;;;;;2.08;0.90;;;;;;;22.50;70.84;100210.91;7398424;19;20011;-46
2022/08/02 11:42:35;;;;;;;0.20;0.20;;;;;;;22.74;70.71;100212.38;7401912;19;20010;-47
2022/08/02 11:48:41;;;;;;;0.40;0.40;;;;;;;22.98;69.97;100225.06;7398366;19;20043;-47
2022/08/02 11:51:13;;;;;;;2.75;1.67;;;;;;;23.00;69.74;100206.47;7398490;19;20010;-52
2022/08/02 11:53:45;;;;;;;3.50;0.55;;;;;;;23.11;69.41;100217.47;7397164;19;20012;-50
2022/08/02 11:56:14;;;;;;;1.38;0.40;;;;;;;23.17;69.48;100204.38;7397102;19;20007;-47
2022/08/02 11:59:09;;;;;;;1.70;0.50;;;;;;;23.29;68.48;100203.66;7396084;19;20021;-48
2022/08/02 12:02:04;;;;;;;0.85;0.22;;;;;;;23.37;68.59;100207.91;7400951;19;20492;-50
2022/08/02 12:04:32;;;;;;;0.37;0.30;;;;;;;23.48;69.23;100201.97;7399476;19;20478;-50
2022/08/02 12:07:00;;;;;;;0.40;0.40;;;;;;;23.47;68.88;100203.19;7393689;19;20015;-49
2022/08/02 12:09:30;;;;;;;1.27;0.40;;;;;;;23.44;68.62;100204.09;7399229;19;20018;-52
2022/08/02 12:11:59;;;;;;;2.25;0.63;;;;;;;23.33;69.75;100218.47;7397358;19;20042;-51
2022/08/02 12:14:29;;;;;;;0.80;0.55;;;;;;;23.24;70.46;100215.50;7399910;19;20047;-50
2022/08/02 12:19:48;;;;;;;1.33;0.70;;;;;;;22.88;72.10;100207.16;7399190;19;20011;-48
2022/08/02 12:22:24;;;;;;;1.23;0.73;;;;;;;22.99;73.91;100198.41;7397378;19;20673;-51
2022/08/02 12:24:57;;;;;;;1.17;0.80;;;;;;;23.16;74.00;100197.16;7399831;19;20097;-50
2022/08/02 12:27:27;;;;;;;0.95;0.80;;;;;;;23.34;73.71;100203.13;7396264;19;20007;-53
2022/08/02 12:30:07;;;;;;;0.60;0.60;;;;;;;23.55;73.55;100196.91;7400978;19;20014;-50
2022/08/02 12:32:42;;;;;;;0.80;0.80;;;;;;;23.77;73.62;100197.09;7395417;19;20000;-48
2022/08/02 12:35:20;;;;;;;0.75;0.75;;;;;;;23.88;73.33;100185.47;7395928;19;20010;-47
2022/08/02 12:37:53;;;;;;;0.57;0.38;;;;;;;23.88;73.02;100188.31;7393735;19;20334;-48
2022/08/02 12:40:29;;;;;;;0.30;0.30;;;;;;;23.99;72.25;100185.91;7397909;19;20014;-50
2022/08/02 12:43:03;;;;;;;2.58;0.50;;;;;;;24.11;71.45;100188.03;7397460;19;20011;-51
2022/08/02 12:45:45;;;;;;;0.75;0.57;;;;;;;24.11;70.53;100188.03;7397301;19;20017;-52
2022/08/02 12:48:35;;;;;;;0.65;0.40;;;;;;;24.18;70.38;100184.97;7394969;19;20021;-49
2022/08/02 12:51:25;;;;;;;0.98;0.43;;;;;;;24.35;70.37;100185.66;7399600;19;20011;-52
2022/08/02 12:54:27;;;;;;;1.77;0.60;;;;;;;24.43;69.57;100181.34;7395098;19;20003;-53
2022/08/02 12:57:12;;;;;;;3.45;0.50;;;;;;;24.49;69.30;100185.22;7395060;19;20472;-48
2022/08/02 12:59:43;;;;;;;0.50;0.50;;;;;;;24.50;69.54;100181.13;7395293;19;20356;-50
2022/08/02 13:02:12;;;;;;;1.98;0.40;;;;;;;24.33;69.47;100179.66;7398007;19;20512;-51
2022/08/02 13:04:41;;;;;;;1.08;0.45;;;;;;;24.33;69.71;100179.66;7398541;19;20035;-48
2022/08/02 13:07:17;;;;;;;0.40;0.40;;;;;;;24.20;69.05;100176.81;7393187;19;20450;-47
2022/08/02 13:10:09;;;;;;;0.32;0.32;;;;;;;24.07;69.25;100176.78;7398129;19;20014;-49
2022/08/02 13:12:38;;;;;;;1.10;0.55;;;;;;;23.96;69.23;100178.38;7398069;19;20015;-48
2022/08/02 13:15:07;;;;;;;1.60;0.63;;;;;;;23.87;70.37;100178.22;7391981;19;20006;-56
2022/08/02 13:17:57;;;;;;;0.75;0.75;;;;;;;23.83;70.99;100177.56;7398405;19;20010;-51
2022/08/02 13:20:26;;;;;;;0.60;0.50;;;;;;;23.90;71.66;100172.47;7396129;19;20010;-52
2022/08/02 13:22:56;;;;;;;1.25;0.80;;;;;;;24.02;71.81;100174.50;7394482;19;20329;-57
2022/08/02 13:25:30;;;;;;;0.75;0.75;;;;;;;24.45;71.91;100165.50;7393548;19;20495;-48
2022/08/02 13:27:57;;;;;;;0.40;0.40;;;;;;;24.79;71.22;100165.59;7394056;19;20006;-48
2022/08/02 13:30:27;;;;;;;1.05;0.50;;;;;;;25.06;70.19;100169.94;7393972;19;20084;-48
2022/08/02 13:32:55;;;;;;;1.75;0.40;;;;;;;25.23;68.66;100168.53;7392247;19;20131;-47
2022/08/02 13:35:27;;;;;;;0.45;0.45;;;;;;;25.45;68.16;100155.16;7396706;19;20019;-54
2022/08/02 13:38:37;;;;;;;0.63;0.50;;;;;;;25.63;66.14;100163.06;7394825;19;20078;-53
2022/08/02 13:41:08;;;;;;;0.73;0.40;;;;;;;25.55;67.17;100151.16;7394809;19;20015;-56
2022/08/02 13:43:56;;;;;;;1.23;0.73;;;;;;;25.28;67.01;100163.06;7395262;19;20015;-53
2022/08/02 13:46:38;;;;;;;4.03;0.77;;;;;;;25.10;67.39;100157.22;7396009;19;20549;-53
2022/08/02 13:49:58;;;;;;;1.33;0.45;;;;;;;25.14;66.02;100145.78;7397921;19;20047;-52
2022/08/02 13:52:37;;;;;;;0.85;0.30;;;;;;;25.25;65.61;100149.03;7396024;19;20074;-53
2022/08/02 13:55:05;;;;;;;2.80;0.38;;;;;;;25.13;65.82;100142.16;7392682;19;20015;-54
2022/08/02 13:57:39;;;;;;;0.30;0.30;;;;;;;25.04;65.32;100144.13;7394570;19;20035;-53
2022/08/02 14:00:27;;;;;;;;;;;;;;;25.00;64.97;100146.28;7396228;19;20011;-44
2022/08/02 14:03:21;;;;;;;0.68;0.40;;;;;;;24.98;65.74;100148.78;7394264;19;20362;-54
2022/08/02 14:06:09;;;;;;;2.13;0.40;;;;;;;25.21;65.18;100142.69;7395065;19;20014;-53
2022/08/02 14:08:37;;;;;;;0.63;0.30;;;;;;;25.57;64.35;100133.72;7393593;19;20029;-51
2022/08/02 14:11:05;;;;;;;0.38;0.38;;;;;;;25.89;62.82;100139.72;7393498;19;20370;-56
2022/08/02 14:13:33;;;;;;;0.30;0.30;;;;;;;26.03;61.31;100130.66;7393397;19;20051;-53
2022/08/02 14:16:05;;;;;;;0.30;0.30;;;;;;;25.94;60.98;100136.31;7393301;19;20034;-54
2022/08/02 14:18:32;;;;;;;0.73;0.55;;;;;;;25.90;60.85;100143.34;7393298;19;20520;-53
2022/08/02 14:21:03;;;;;;;1.85;0.38;;;;;;;26.05;60.32;100140.78;7392644;19;20472;-59
2022/08/02 14:23:31;;;;;;;1.17;0.50;;;;;;;25.91;60.19;100142.91;7392996;19;20047;-56
2022/08/02 14:26:16;;;;;;;0.93;0.50;;;;;;;25.97;60.16;100134.59;7392642;19;20025;-54
2022/08/02 14:28:55;;;;;;;0.40;0.40;;;;;;;26.28;59.67;100134.59;7395627;19;20043;-51
2022/08/02 14:31:22;;;;;;;0.30;0.30;;;;;;;26.37;58.62;100131.78;7392606;19;20010;-55
2022/08/02 14:33:50;;;;;;;0.40;0.40;;;;;;;26.24;58.63;100131.88;7392548;19;20017;-52